createdAt,value
2022-09-26T00:00:33.659Z,68.67
2022-09-26T00:05:36.353Z,68.83
2022-09-26T00:10:37.970Z,69.01
2022-09-26T00:15:39.610Z,68.78
2022-09-26T00:20:41.234Z,68.39
2022-09-26T00:25:51.496Z,68.30
2022-09-26T00:30:53.538Z,68.48
2022-09-26T00:35:55.828Z,68.80
2022-09-26T00:40:58.128Z,68.77
2022-09-26T00:46:18.566Z,68.90
2022-09-26T00:51:20.636Z,68.63
2022-09-26T00:56:30.332Z,67.96
2022-09-26T01:01:32.248Z,68.09
2022-09-26T01:06:34.015Z,68.77
2022-09-26T01:12:10.358Z,68.46
2022-09-26T01:17:13.379Z,68.11
2022-09-26T01:22:48.685Z,68.20
2022-09-26T01:28:18.652Z,68.51
2022-09-26T01:33:35.878Z,69.33
2022-09-26T01:39:05.254Z,69.09
2022-09-26T01:44:35.558Z,68.60
2022-09-26T01:49:46.667Z,68.94
2022-09-26T01:54:57.280Z,68.90
2022-09-26T02:00:05.894Z,68.30
2022-09-26T02:05:16.247Z,68.09
2022-09-26T02:10:28.936Z,68.79
2022-09-26T02:15:35.051Z,68.51
2022-09-26T02:20:38.998Z,68.54
2022-09-26T02:25:40.763Z,68.25
2022-09-26T02:30:46.432Z,67.98
2022-09-26T02:35:57.606Z,68.00
2022-09-26T02:41:02.229Z,67.83
2022-09-26T02:46:51.654Z,68.15
2022-09-26T02:52:02.415Z,67.58
2022-09-26T02:57:04.001Z,67.95
2022-09-26T03:02:18.152Z,68.28
2022-09-26T03:08:05.002Z,68.17
2022-09-26T03:13:13.276Z,68.07
2022-09-26T03:18:21.059Z,67.52
2022-09-26T03:23:26.991Z,67.76
2022-09-26T03:28:30.814Z,67.67
2022-09-26T03:33:34.504Z,67.73
2022-09-26T03:38:36.205Z,67.63
2022-09-26T03:43:37.853Z,67.48
2022-09-26T03:48:39.988Z,67.23
2022-09-26T03:53:43.601Z,67.34
2022-09-26T03:58:46.729Z,67.47
2022-09-26T04:04:10.377Z,67.61
2022-09-26T04:09:16.800Z,67.47
2022-09-26T04:14:19.989Z,67.38
2022-09-26T04:19:21.600Z,67.15
2022-09-26T04:24:23.234Z,67.41
2022-09-26T04:29:24.906Z,67.59
2022-09-26T04:34:27.578Z,67.42
2022-09-26T04:39:29.396Z,67.72
2022-09-26T04:44:31.216Z,67.80
2022-09-26T04:49:32.842Z,68.08
2022-09-26T04:54:37.481Z,67.85
2022-09-26T04:59:39.099Z,67.58
2022-09-26T05:04:40.770Z,67.19
2022-09-26T05:09:42.949Z,67.31
2022-09-26T05:14:44.765Z,67.61
2022-09-26T05:19:46.386Z,67.69
2022-09-26T05:25:06.559Z,67.86
2022-09-26T05:30:08.553Z,68.20
2022-09-26T05:35:10.245Z,68.14
2022-09-26T05:40:30.389Z,68.19
2022-09-26T05:45:32.796Z,68.22
2022-09-26T05:50:34.760Z,68.13
2022-09-26T05:55:37.791Z,68.21
2022-09-26T06:00:39.412Z,67.83
2022-09-26T06:05:42.544Z,67.51
2022-09-26T06:10:44.188Z,67.70
2022-09-26T06:15:45.837Z,66.75
2022-09-26T06:20:47.458Z,66.72
2022-09-26T06:25:50.152Z,65.90
2022-09-26T06:30:52.431Z,65.62
2022-09-26T06:36:05.353Z,65.00
2022-09-26T06:41:07.637Z,65.40
2022-09-26T06:46:09.630Z,65.39
2022-09-26T06:51:13.863Z,64.84
2022-09-26T06:56:15.697Z,64.59
2022-09-26T07:01:18.563Z,65.18
2022-09-26T07:06:20.281Z,65.21
2022-09-26T07:16:45.095Z,65.41
2022-09-26T07:21:48.184Z,65.23
2022-09-26T07:26:50.252Z,64.96
2022-09-26T07:31:52.130Z,64.58
2022-09-26T07:36:54.300Z,64.17
2022-09-26T07:41:55.962Z,62.61
2022-09-26T07:47:32.936Z,61.19
2022-09-26T07:52:34.710Z,59.59
2022-09-26T07:57:36.381Z,58.92
2022-09-26T08:02:40.982Z,57.70
2022-09-26T08:07:42.892Z,56.10
2022-09-26T08:12:44.751Z,54.29
2022-09-26T08:17:46.387Z,53.39
2022-09-26T08:22:48.035Z,53.32
2022-09-26T08:27:50.597Z,53.53
2022-09-26T08:33:49.884Z,52.37
2022-09-26T08:38:51.605Z,52.97
2022-09-26T08:43:57.776Z,52.75
2022-09-26T08:49:42.558Z,50.39
2022-09-26T08:54:46.534Z,51.07
2022-09-26T08:59:50.056Z,50.30
2022-09-26T09:05:10.396Z,47.83
2022-09-26T09:10:18.016Z,49.24
2022-09-26T09:15:58.093Z,47.81
2022-09-26T09:21:02.632Z,49.20
2022-09-26T09:31:46.060Z,48.75
2022-09-26T09:36:55.518Z,47.96
2022-09-26T09:42:03.767Z,48.86
2022-09-26T09:47:14.820Z,49.04
2022-09-26T09:52:39.230Z,48.98
2022-09-26T09:58:15.368Z,49.45
2022-09-26T10:03:37.890Z,49.01
2022-09-26T10:08:41.896Z,48.88
2022-09-26T10:13:45.349Z,48.43
2022-09-26T10:19:04.301Z,46.87
2022-09-26T10:24:22.269Z,46.89
2022-09-26T10:29:35.242Z,45.95
2022-09-26T10:34:39.975Z,47.06
2022-09-26T10:40:01.296Z,47.75
2022-09-26T10:45:16.167Z,47.44
2022-09-26T10:51:14.717Z,47.16
2022-09-26T10:56:11.665Z,46.82
2022-09-26T11:01:26.702Z,47.65
2022-09-26T11:06:33.418Z,48.00
2022-09-26T11:11:40.584Z,48.22
2022-09-26T11:16:55.852Z,48.80
2022-09-26T11:22:37.795Z,48.74
2022-09-26T11:27:46.149Z,48.69
2022-09-26T11:32:56.640Z,48.56
2022-09-26T11:38:14.459Z,50.34
2022-09-26T11:43:53.377Z,48.76
2022-09-26T11:49:02.285Z,48.99
2022-09-26T11:54:06.822Z,49.57
2022-09-26T11:59:17.388Z,49.92
2022-09-26T12:04:37.794Z,50.38
2022-09-26T12:10:00.412Z,50.96
2022-09-26T12:15:20.513Z,51.95
2022-09-26T12:20:28.020Z,52.27
2022-09-26T12:25:56.184Z,52.92
2022-09-26T12:31:19.712Z,53.32
2022-09-26T12:36:48.843Z,52.63
2022-09-26T12:42:03.640Z,52.55
2022-09-26T12:47:21.425Z,53.42
2022-09-26T12:52:41.705Z,53.50
2022-09-26T12:58:14.681Z,53.38
2022-09-26T13:03:35.781Z,53.46
2022-09-26T13:08:44.602Z,54.10
2022-09-26T13:14:13.394Z,52.90
2022-09-26T13:19:36.027Z,52.66
2022-09-26T13:25:11.617Z,52.90
2022-09-26T13:30:19.061Z,51.85
2022-09-26T13:35:24.911Z,51.64
2022-09-26T13:40:57.490Z,50.80
2022-09-26T13:46:16.960Z,50.80
2022-09-26T13:51:49.406Z,50.52
2022-09-26T13:56:51.534Z,50.61
2022-09-26T14:02:16.330Z,48.74
2022-09-26T14:07:38.022Z,49.37
2022-09-26T14:13:06.771Z,48.47
2022-09-26T14:19:00.210Z,49.33
2022-09-26T14:24:37.263Z,48.92
2022-09-26T14:29:39.179Z,48.94
2022-09-26T14:34:57.241Z,48.36
2022-09-26T14:40:11.228Z,48.97
2022-09-26T14:45:33.522Z,48.00
2022-09-26T14:50:47.855Z,47.93
2022-09-26T14:55:59.278Z,47.81
2022-09-26T15:01:11.603Z,47.98
2022-09-26T15:06:13.973Z,48.62
2022-09-26T15:11:30.335Z,48.39
2022-09-26T15:16:53.491Z,49.15
2022-09-26T15:22:02.865Z,48.80
2022-09-26T15:27:28.185Z,50.11
2022-09-26T15:32:33.649Z,51.32
2022-09-26T15:37:36.568Z,52.98
2022-09-26T15:42:57.644Z,53.22
2022-09-26T15:48:05.522Z,54.80
2022-09-26T15:53:13.036Z,56.28
2022-09-26T15:58:26.804Z,57.11
2022-09-26T16:04:10.285Z,58.91
2022-09-26T16:09:12.685Z,59.17
2022-09-26T16:14:29.178Z,60.28
2022-09-26T16:19:48.440Z,60.44
2022-09-26T16:24:51.446Z,60.61
2022-09-26T16:30:00.056Z,60.59
2022-09-26T16:59:51.685Z,62.82
2022-09-26T17:22:55.419Z,63.09
2022-09-26T18:29:40.272Z,64.68
2022-09-26T18:34:44.578Z,64.53
2022-09-26T18:40:04.109Z,64.67
2022-09-26T18:51:50.890Z,64.54
2022-09-26T18:57:21.897Z,64.89
2022-09-26T19:09:01.760Z,65.20
2022-09-26T19:27:33.315Z,66.01
2022-09-26T19:45:03.926Z,65.88
2022-09-26T19:56:06.863Z,66.04
2022-09-26T20:08:01.399Z,65.80
2022-09-26T20:13:16.062Z,65.96
2022-09-26T20:18:32.899Z,65.98
2022-09-26T20:23:57.425Z,65.83
2022-09-26T20:29:16.377Z,66.00
2022-09-26T20:34:45.677Z,65.97
2022-09-26T20:40:13.747Z,66.37
2022-09-26T20:45:31.434Z,66.48
2022-09-26T20:51:01.551Z,66.94
2022-09-26T20:56:46.205Z,67.22
2022-09-26T21:02:32.786Z,67.07
2022-09-26T21:07:42.252Z,66.79
2022-09-26T21:12:52.424Z,67.09
2022-09-26T21:18:23.239Z,67.44
2022-09-26T21:23:25.131Z,67.01
2022-09-26T21:28:28.602Z,66.66
2022-09-26T21:33:30.631Z,66.76
2022-09-26T21:38:32.407Z,66.98
2022-09-26T21:43:38.696Z,66.56
2022-09-26T21:48:40.357Z,66.76
2022-09-26T21:54:00.449Z,66.53
2022-09-26T21:59:04.113Z,66.74
2022-09-26T22:04:06.070Z,66.85
2022-09-26T22:09:08.794Z,67.16
2022-09-26T22:14:10.562Z,66.89
2022-09-26T22:19:12.250Z,67.45
2022-09-26T22:24:13.940Z,67.23
2022-09-26T22:29:15.699Z,67.29
2022-09-26T22:34:17.430Z,67.04
2022-09-26T22:39:19.074Z,67.30
2022-09-26T22:44:20.761Z,67.19
2022-09-26T22:49:23.070Z,67.27
2022-09-26T22:54:24.736Z,67.24
2022-09-26T22:59:26.429Z,67.26
2022-09-26T23:04:46.952Z,67.34
2022-09-26T23:09:48.743Z,67.37
2022-09-26T23:14:50.381Z,67.42
2022-09-26T23:19:52.405Z,67.42
2022-09-26T23:24:54.111Z,67.39
2022-09-26T23:29:55.820Z,67.20
2022-09-26T23:34:57.459Z,67.41
2022-09-26T23:39:59.099Z,67.73
2022-09-26T23:45:00.727Z,67.62
2022-09-26T23:50:02.409Z,67.10
2022-09-26T23:55:04.551Z,67.49
